Adak, AK

1:53 PM HST on February 18, 2018 (GMT -1000)
Adak | | Change Station
Active Advisory: High Wind Warning

Elev 16 ft 51.88 °N, 176.65 °W | Updated 20 minutes ago

Overcast
Overcast
46 °F
Feels Like 36 °F
N
38
Wind Variable Wind from South
Gusts 51 mph

Today
High -- | Low -- °F
--% Chance of Precip.
Yesterday
High -- | Low -- °F
Precip. -- in
Pressure 29.31 in
Visibility 5.0 miles
Clouds Overcast 1100 ft
Windchill 36 °F
Dew Point 43 °F
Humidity 87%
Rainfall 1.28 in
Snow Depth Not available.
8:54 AM 7:07 PM
Waxing Crescent, 10% visible
SPECI PADK 182333Z AUTO 17033G44KT 5SM BR OVC011 08/06 A2931 RMK AO2 PK WND 16050/2257
Pressure 29.31 in
Visibility 5.0 miles
Clouds Overcast 1100 ft
Windchill 36 °F
Dew Point 43 °F
Humidity 87%
Rainfall 1.28 in
Snow Depth Not available.
8:54 AM 7:07 PM
Waxing Crescent, 10% visible
SPECI PADK 182333Z AUTO 17033G44KT 5SM BR OVC011 08/06 A2931 RMK AO2 PK WND 16050/2257

Get Your Daily Forecast Email!

Thanks for signing up!

Be on the lookout for a verification email in your inbox.

You'll start receiving severe weather alerts in your inbox..

×

10-Day Weather Forecast

Almanac

Astronomy

Feb. 18, 2018 Rise Set
Actual Time
Civil Twilight
Nautical Twilight
Astronomical Twilight
Moon
Length of Visible Light
Length of Day
Tomorrow will be .
, % of the Moon is Illuminated

Today's Extremes

State Highs State Lows

Community

WunderPhotos

Category 6

Welcome to Category 6. This is the collective home for Weather Underground's featured writeups by Dr. Jeff Masters (right), Bob Henson (left), Chris Burt, and other regular contributors.

Nearby

Air Quality

  Air Quality AQ Index Pollutant
Not available.

Snow Depth

Station Depth Elevation

Earthquake Activity

City Distance Mag. Time & Date
Minimum magnitude displayed is 2.5.

Coastal Water Temperatures

Place Temperature

Stations

Nearby Weather Stations

Station Location Temp. Windchill Dew Point Humidity Wind Precip. Elev Updated Type
                   

Watches & Warnings

High Wind Warning
Issued: 10:59 AM AKST Feb. 18, 2018 – National Weather Service

... High Wind Warning in effect from 7 PM this evening to 4 am
akst Monday...

The National Weather Service in Anchorage has issued a High Wind
Warning, which is in effect from 7 PM this evening to 4 am akst
Monday.

* Wind... south wind 35 to 50 mph with gusts to 80 mph. Possible
gusts as high as 90 mph to the west of the Atka late this
evening.

* Timing... after a brief lull in the winds this afternoon, south
winds are expected to increase again early this evening. The
strong winds are expected to occur to the west of Atka between
the hours of 9 PM and midnight, and then slowly diminish during
the early morning hours Monday.

* Impacts... high winds may move loose debris and may damage
property.

Precautionary/preparedness actions...

A High Wind Warning means a hazardous high wind event is expected
or occurring. People are urged to secure loose objects that could
be blown around or damaged by the wind.